Time;durP1;ratioP1;P1;durP2;ratioP2;P2;SDS_P1;SDS_P2;PMS_P1;PMS_P2;Temp;Humidity;BMP_temperature;BMP_pressure;BME280_temperature;BME280_humidity;BME280_pressure;Samples;Min_cycle;Max_cycle;Signal;HPM_P1;HPM_P2
2021/06/16 00:31:11;;;;;;;6.00;3.30;;;16.00;99.90;;;;;;6275681;22;20699;-96
2021/06/16 00:34:36;;;;;;;4.53;2.90;;;16.00;99.90;;;;;;6298581;22;20365;-96
2021/06/16 00:40:45;;;;;;;7.07;2.80;;;16.00;99.90;;;;;;6222143;23;20395;-96
2021/06/16 00:43:37;;;;;;;5.60;2.83;;;16.00;99.90;;;;;;6198517;23;20400;-96
2021/06/16 00:46:44;;;;;;;8.68;3.20;;;15.90;99.90;;;;;;6126797;23;20415;-96
2021/06/16 00:49:33;;;;;;;8.07;3.33;;;15.90;99.90;;;;;;6155413;23;20369;-96
2021/06/16 00:52:25;;;;;;;6.60;3.30;;;15.70;99.90;;;;;;6151713;23;20385;-95
2021/06/16 00:55:07;;;;;;;8.68;3.30;;;15.60;99.90;;;;;;6191210;23;20413;-96
2021/06/16 00:57:51;;;;;;;6.00;3.30;;;15.50;99.90;;;;;;6147685;23;20409;-96
2021/06/16 01:04:35;;;;;;;7.00;3.20;;;15.30;99.90;;;;;;6063956;23;20384;-96
2021/06/16 01:07:33;;;;;;;10.63;3.40;;;15.10;99.90;;;;;;6039442;23;20396;-96
2021/06/16 01:10:29;;;;;;;5.78;3.40;;;15.10;99.90;;;;;;6079499;23;20424;-96
2021/06/16 01:13:33;;;;;;;7.85;3.58;;;15.10;99.90;;;;;;6076018;23;20412;-96
2021/06/16 01:16:42;;;;;;;7.72;3.50;;;15.20;99.90;;;;;;6076259;23;20379;-96
2021/06/16 01:20:03;;;;;;;10.30;3.60;;;15.30;99.90;;;;;;6040552;23;20391;-96
2021/06/16 01:23:47;;;;;;;7.87;3.20;;;15.30;99.90;;;;;;5960466;24;20406;-96
2021/06/16 01:26:50;;;;;;;8.80;3.37;;;15.40;99.90;;;;;;5963919;24;20489;-96
2021/06/16 01:30:22;;;;;;;6.38;3.42;;;15.50;99.90;;;;;;5947681;24;20395;-96
2021/06/16 01:33:48;;;;;;;10.55;3.97;;;15.50;99.90;;;;;;5977796;24;20409;-96
2021/06/16 01:37:06;;;;;;;10.65;3.42;;;15.60;99.90;;;;;;5995930;24;20438;-96
2021/06/16 01:39:50;;;;;;;8.88;3.10;;;15.70;99.90;;;;;;6006785;23;20405;-96
2021/06/16 01:42:47;;;;;;;6.57;3.38;;;15.60;99.90;;;;;;6030031;23;20467;-96
2021/06/16 01:45:26;;;;;;;5.40;3.17;;;15.60;99.90;;;;;;6029160;23;20394;-96
2021/06/16 01:48:19;;;;;;;8.18;3.92;;;15.40;99.90;;;;;;6029264;23;20393;-96
2021/06/16 01:51:37;;;;;;;7.32;3.67;;;15.40;99.90;;;;;;5992350;23;20751;-96
2021/06/16 01:54:29;;;;;;;5.25;3.22;;;15.30;99.90;;;;;;6079010;23;20385;-96
2021/06/16 01:57:38;;;;;;;7.88;3.22;;;15.30;99.90;;;;;;6065872;23;20389;-96
2021/06/16 02:00:39;;;;;;;6.25;3.40;;;15.20;99.90;;;;;;6261872;22;20771;-96
2021/06/16 02:03:27;;;;;;;7.17;3.20;;;15.30;99.90;;;;;;6292377;22;20455;-96
2021/06/16 02:06:49;;;;;;;8.60;3.30;;;15.30;99.90;;;;;;6285890;22;20369;-96
2021/06/16 02:13:21;;;;;;;6.50;3.30;;;15.50;99.90;;;;;;6168507;23;20363;-96
2021/06/16 02:16:24;;;;;;;7.35;3.33;;;15.50;99.90;;;;;;6165449;23;20435;-96
2021/06/16 02:19:22;;;;;;;7.13;3.50;;;15.40;99.90;;;;;;6169552;23;20383;-96
2021/06/16 02:22:14;;;;;;;7.67;3.77;;;15.40;99.90;;;;;;6147545;23;20379;-96
2021/06/16 02:55:12;;;;;;;54.85;6.32;;;15.40;99.90;;;;;;6286739;22;20413;-96
2021/06/16 02:58:45;;;;;;;9.15;3.30;;;15.40;99.90;;;;;;6251419;22;20371;-96
2021/06/16 03:02:16;;;;;;;6.13;2.80;;;15.50;99.90;;;;;;6246234;22;20369;-96
2021/06/16 03:05:21;;;;;;;5.63;3.10;;;15.40;99.90;;;;;;6267432;22;20422;-96
2021/06/16 03:08:37;;;;;;;7.37;3.03;;;15.40;99.90;;;;;;6225002;22;20457;-96
2021/06/16 03:11:43;;;;;;;8.67;3.10;;;15.40;99.90;;;;;;6271274;22;20400;-96
2021/06/16 03:14:55;;;;;;;5.53;2.95;;;15.40;99.90;;;;;;6269889;22;20426;-96
2021/06/16 03:18:22;;;;;;;32.15;4.50;;;15.40;99.90;;;;;;6110201;23;20442;-96
2021/06/16 03:21:21;;;;;;;52.38;5.75;;;15.40;99.90;;;;;;6072871;23;20383;-96
2021/06/16 03:24:30;;;;;;;13.50;3.40;;;15.30;99.90;;;;;;6109044;23;20467;-96
2021/06/16 03:27:46;;;;;;;86.63;7.15;;;15.30;99.90;;;;;;6050539;23;20422;-96
2021/06/16 03:31:11;;;;;;;8.82;3.40;;;15.20;99.90;;;;;;6040789;23;20397;-96
2021/06/16 03:33:43;;;;;;;7.68;3.30;;;15.20;99.90;;;;;;6071697;23;20394;-95
2021/06/16 03:36:11;;;;;;;6.23;3.10;;;15.10;99.90;;;;;;6071063;23;20397;-96
2021/06/16 03:38:45;;;;;;;160.90;9.32;;;15.20;99.90;;;;;;6072368;23;20402;-96
2021/06/16 03:41:13;;;;;;;54.58;5.82;;;15.20;99.90;;;;;;6081411;23;20484;-96
2021/06/16 03:43:46;;;;;;;17.02;3.55;;;15.30;99.90;;;;;;6083013;23;20760;-96
2021/06/16 03:46:15;;;;;;;96.47;7.47;;;15.40;99.90;;;;;;6084167;23;20397;-96
2021/06/16 03:48:48;;;;;;;32.42;4.35;;;15.40;99.90;;;;;;6087234;23;20421;-96
2021/06/16 03:51:18;;;;;;;70.80;6.43;;;15.40;99.90;;;;;;6068017;23;20406;-96
2021/06/16 03:54:11;;;;;;;17.83;4.05;;;15.20;99.90;;;;;;6110091;23;20378;-96
2021/06/16 03:57:35;;;;;;;6.47;3.45;;;15.10;99.90;;;;;;6094269;23;20381;-96
2021/06/16 04:01:13;;;;;;;10.80;3.70;;;15.00;99.90;;;;;;6088891;23;20391;-96
2021/06/16 04:04:12;;;;;;;17.45;3.83;;;15.00;99.90;;;;;;6101981;23;20413;-96
2021/06/16 04:06:54;;;;;;;8.35;3.05;;;15.00;99.90;;;;;;6099642;23;20384;-96
2021/06/16 04:09:36;;;;;;;9.43;4.47;;;15.10;99.90;;;;;;6171909;23;20384;-96
2021/06/16 04:12:51;;;;;;;7.53;3.80;;;15.30;99.90;;;;;;6198571;23;20387;-96
2021/06/16 04:15:54;;;;;;;6.93;3.33;;;15.50;99.90;;;;;;6128404;23;20399;-96
2021/06/16 04:19:20;;;;;;;;;;;;;;;;;;;;;
2021/06/16 04:22:39;;;;;;;9.15;3.80;;;15.50;99.90;;;;;;6146177;23;20399;-96
2021/06/16 04:26:02;;;;;;;;;;;;;;;;;;;;;
2021/06/16 04:29:43;;;;;;;7.22;3.00;;;15.70;99.90;;;;;;6132739;23;20377;-96
2021/06/16 04:33:34;;;;;;;30.35;3.92;;;15.90;99.90;;;;;;6033614;23;20471;-97
2021/06/16 04:37:21;;;;;;;14.95;3.35;;;16.20;99.90;;;;;;5947662;24;20395;-96
2021/06/16 05:29:21;;;;;;;10.68;3.47;;;16.90;99.90;;;;;;6301682;22;20476;-96
2021/06/16 05:31:48;;;;;;;5.97;3.15;;;17.00;99.90;;;;;;6311835;22;20874;-96
2021/06/16 05:34:25;;;;;;;5.88;2.60;;;17.00;99.90;;;;;;6285167;22;20470;-96
2021/06/16 05:36:53;;;;;;;8.65;3.38;;;17.00;99.90;;;;;;6284646;22;20434;-96
2021/06/16 05:39:20;;;;;;;6.30;2.92;;;17.10;99.90;;;;;;6283465;22;20741;-96
2021/06/16 05:41:49;;;;;;;7.10;2.93;;;17.10;99.90;;;;;;6281942;22;20945;-96
2021/06/16 05:44:18;;;;;;;17.77;3.85;;;17.30;99.90;;;;;;6284464;22;20378;-96
2021/06/16 05:47:27;;;;;;;31.05;3.67;;;17.40;99.90;;;;;;6329710;22;20446;-96
2021/06/16 05:58:59;;;;;;;5.18;2.70;;;19.00;99.90;;;;;;6261652;22;20385;-96
2021/06/16 06:53:14;;;;;;;7.95;2.25;;;24.70;97.10;;;;;;6268633;22;20383;-94
2021/06/16 06:55:43;;;;;;;4.72;2.35;;;24.70;92.60;;;;;;6283761;22;20386;-96
2021/06/16 06:58:10;;;;;;;6.70;2.50;;;24.50;97.70;;;;;;6281279;22;20677;-95
2021/06/16 07:00:37;;;;;;;8.53;2.47;;;24.50;92.30;;;;;;6281330;22;20390;-95
2021/06/16 07:25:23;;;;;;;7.43;2.43;;;24.60;86.10;;;;;;6303611;22;20413;-94
2021/06/16 07:28:12;;;;;;;7.07;2.30;;;24.70;93.90;;;;;;6308555;22;20438;-93
2021/06/16 07:31:30;;;;;;;5.57;2.40;;;25.10;90.90;;;;;;6311131;22;20400;-92
2021/06/16 07:35:16;;;;;;;3.70;2.10;;;25.00;86.60;;;;;;6221298;22;20529;-93
2021/06/16 07:38:26;;;;;;;3.70;2.15;;;24.70;87.40;;;;;;6222703;23;20488;-92
2021/06/16 07:41:10;;;;;;;13.05;2.72;;;24.80;89.90;;;;;;6200345;23;21008;-94
2021/06/16 07:46:51;;;;;;;7.35;2.33;;;24.70;88.60;;;;;;6319538;22;20394;-94
2021/06/16 07:49:25;;;;;;;5.72;2.60;;;24.80;90.10;;;;;;6299452;22;20392;-96
2021/06/16 07:51:53;;;;;;;3.90;2.30;;;24.60;87.30;;;;;;6286694;22;20453;-96
2021/06/16 07:54:25;;;;;;;3.80;2.20;;;24.50;92.50;;;;;;6289528;22;20858;-96
2021/06/16 07:57:19;;;;;;;4.90;2.17;;;24.20;92.10;;;;;;6294566;22;20382;-96
2021/06/16 08:00:35;;;;;;;7.55;2.25;;;24.30;92.20;;;;;;6287669;22;20422;-96
2021/06/16 08:03:05;;;;;;;5.95;2.40;;;24.30;88.10;;;;;;6286854;22;20728;-96
2021/06/16 08:05:41;;;;;;;6.93;2.70;;;24.40;88.90;;;;;;6290232;22;20368;-96
2021/06/16 08:14:14;;;;;;;6.43;2.47;;;24.60;91.10;;;;;;6281624;22;20442;-94
2021/06/16 08:16:44;;;;;;;6.20;2.50;;;24.70;86.50;;;;;;6268676;22;20418;-96
2021/06/16 08:19:11;;;;;;;4.97;2.40;;;24.80;86.50;;;;;;6317551;22;20384;-92
2021/06/16 08:21:57;;;;;;;5.10;2.10;;;24.90;88.60;;;;;;6296131;22;20379;-96
2021/06/16 12:02:35;;;;;;;5.70;2.72;;;26.90;84.80;;;;;;6308529;22;20404;-95
2021/06/16 12:12:26;;;;;;;7.77;3.00;;;26.60;83.80;;;;;;6311204;22;20370;-96
2021/06/16 12:18:51;;;;;;;5.57;2.60;;;28.10;79.20;;;;;;6199243;22;20377;31
2021/06/16 12:21:22;;;;;;;5.88;2.47;;;28.10;74.60;;;;;;6300919;22;20488;-95
2021/06/16 12:23:52;;;;;;;7.85;2.53;;;27.50;76.30;;;;;;6259119;22;20384;-96
2021/06/16 12:32:38;;;;;;;17.45;3.20;;;26.00;76.80;;;;;;6304490;22;20399;-95
2021/06/16 12:56:18;;;;;;;6.90;2.35;;;30.80;70.30;;;;;;6310595;22;20475;-95
2021/06/16 13:00:20;;;;;;;6.22;2.53;;;30.40;66.20;;;;;;6266131;22;20368;-96
2021/06/16 13:03:50;;;;;;;3.72;2.30;;;30.60;67.20;;;;;;6297581;22;20398;-95
2021/06/16 13:07:06;;;;;;;5.75;2.60;;;30.80;65.60;;;;;;6302334;22;20370;-95
2021/06/16 13:10:37;;;;;;;4.10;2.35;;;30.20;66.50;;;;;;6201106;23;20389;-94
2021/06/16 13:14:35;;;;;;;5.82;2.30;;;30.00;67.60;;;;;;6201533;23;20436;-92
2021/06/16 13:17:56;;;;;;;7.05;2.80;;;29.80;65.40;;;;;;6250648;22;20420;-94
2021/06/16 13:20:41;;;;;;;4.65;2.40;;;29.60;66.40;;;;;;6295480;22;20866;-96
2021/06/16 13:23:19;;;;;;;4.93;2.10;;;30.10;69.80;;;;;;6321888;22;20946;-96
2021/06/16 13:26:01;;;;;;;2.97;2.30;;;30.60;70.50;;;;;;6327018;22;20358;-96
2021/06/16 13:29:15;;;;;;;4.90;2.60;;;30.80;61.60;;;;;;6246665;22;20380;-95
2021/06/16 13:32:14;;;;;;;4.30;2.30;;;30.20;67.70;;;;;;6323420;22;20416;-95
2021/06/16 13:34:46;;;;;;;12.10;2.53;;;29.40;64.20;;;;;;6295843;22;20379;-95
2021/06/16 13:37:15;;;;;;;5.57;2.30;;;29.40;70.90;;;;;;6292106;22;20378;-96
2021/06/16 13:39:44;;;;;;;4.95;2.60;;;30.10;68.00;;;;;;6292150;22;20382;-96
2021/06/16 13:42:20;;;;;;;6.60;2.45;;;30.20;64.70;;;;;;6289543;22;20378;-96
2021/06/16 13:44:50;;;;;;;3.45;2.28;;;29.50;62.80;;;;;;6293485;22;20383;-96
2021/06/16 14:26:05;;;;;;;6.45;2.40;;;32.20;59.10;;;;;;6304862;22;20394;-96
2021/06/16 15:29:09;;;;;;;3.65;2.10;;;31.30;58.70;;;;;;6285628;22;20426;-96
2021/06/16 15:31:39;;;;;;;7.55;2.00;;;31.60;56.10;;;;;;6288731;22;20482;-96
2021/06/16 15:34:07;;;;;;;6.00;2.00;;;32.00;55.70;;;;;;6283039;22;20529;-96
2021/06/16 15:36:35;;;;;;;2.88;1.80;;;31.80;51.60;;;;;;6280837;22;20389;-96
2021/06/16 15:39:07;;;;;;;5.28;2.05;;;31.80;54.20;;;;;;6280821;22;20850;-94
2021/06/16 15:41:34;;;;;;;7.05;1.90;;;32.10;54.20;;;;;;6280631;22;20465;-96
2021/06/16 15:44:24;;;;;;;3.78;1.90;;;31.90;50.10;;;;;;6285265;22;20450;-93
2021/06/16 15:47:45;;;;;;;3.38;1.77;;;31.80;55.40;;;;;;6321268;22;20408;-96
2021/06/16 15:50:41;;;;;;;6.87;2.07;;;32.20;56.30;;;;;;6277253;22;20367;-96
2021/06/16 15:54:00;;;;;;;;;;;;;;;;;;;;;
2021/06/16 15:59:50;;;;;;;4.63;2.00;;;30.20;56.10;;;;;;6277938;22;21494;-96
2021/06/16 17:50:05;;;;;;;7.43;2.38;;;26.90;60.40;;;;;;6287584;22;20478;-95
2021/06/16 17:52:39;;;;;;;8.68;2.65;;;26.50;59.80;;;;;;6299057;22;20395;-96
2021/06/16 17:55:28;;;;;;;12.02;2.60;;;26.10;62.80;;;;;;6298823;22;20432;-96
2021/06/16 17:58:12;;;;;;;6.17;2.20;;;26.10;63.30;;;;;;6300920;22;20375;-96
2021/06/16 18:00:44;;;;;;;4.80;2.70;;;26.20;61.50;;;;;;6299924;22;20851;-96
2021/06/16 18:03:22;;;;;;;11.77;2.50;;;25.80;61.60;;;;;;6247286;22;20417;-96
2021/06/16 18:06:47;;;;;;;9.43;2.60;;;25.50;65.20;;;;;;6213578;22;20414;-96
2021/06/16 18:09:29;;;;;;;6.53;2.70;;;25.30;62.50;;;;;;6216522;23;20423;-95
2021/06/16 18:11:56;;;;;;;6.03;2.47;;;25.10;62.90;;;;;;6214413;23;20399;-96
2021/06/16 18:14:25;;;;;;;6.88;2.42;;;24.90;65.60;;;;;;6214712;23;20884;-95
2021/06/16 18:16:53;;;;;;;6.60;2.60;;;24.60;65.20;;;;;;6214188;23;20419;-96
2021/06/16 18:19:21;;;;;;;27.30;3.30;;;24.30;66.50;;;;;;6215732;23;20384;-94
2021/06/16 18:21:49;;;;;;;10.68;3.05;;;24.00;66.10;;;;;;6189691;23;20404;-93
2021/06/16 18:24:16;;;;;;;5.20;2.70;;;23.80;70.60;;;;;;6189198;23;20398;-92
2021/06/16 18:26:45;;;;;;;5.40;2.70;;;23.40;72.40;;;;;;6209027;23;20384;-96
2021/06/16 18:40:35;;;;;;;7.68;2.85;;;21.90;79.10;;;;;;6276049;22;20390;-96
2021/06/16 21:23:43;;;;;;;7.00;3.78;;;17.70;92.40;;;;;;6266652;22;20362;31
2021/06/16 23:27:07;;;;;;;5.70;3.00;;;17.10;92.90;;;;;;6300065;22;20489;-96
